Time;durP1;ratioP1;P1;durP2;ratioP2;P2;SDS_P1;SDS_P2;PMS_P1;PMS_P2;Temp;Humidity;BMP_temperature;BMP_pressure;BME280_temperature;BME280_humidity;BME280_pressure;Samples;Min_cycle;Max_cycle;Signal;HPM_P1;HPM_P2
2022/03/30 00:02:00;;;;;;;73.70;38.65;;;;;;;6.88;79.30;100204.56;5074020;28;20475;-49
2022/03/30 00:04:26;;;;;;;77.95;41.63;;;;;;;6.77;78.98;100224.47;5073941;28;20029;-47
2022/03/30 00:06:52;;;;;;;81.10;41.30;;;;;;;6.62;79.75;100212.88;5072683;28;20040;-43
2022/03/30 00:09:18;;;;;;;82.30;41.70;;;;;;;6.75;79.86;100217.66;5074056;28;20036;-42
2022/03/30 00:11:44;;;;;;;75.88;39.50;;;;;;;6.80;78.98;100220.66;5072541;28;20090;-41
2022/03/30 00:14:10;;;;;;;82.05;40.17;;;;;;;6.79;78.86;100219.78;5072299;28;20031;-42
2022/03/30 00:16:36;;;;;;;86.32;40.75;;;;;;;6.75;78.85;100218.50;5074027;28;20103;-42
2022/03/30 00:19:03;;;;;;;72.55;39.63;;;;;;;6.67;80.17;100215.06;5073938;28;20099;-42
2022/03/30 00:21:29;;;;;;;71.72;35.28;;;;;;;6.82;79.61;100217.81;5073470;28;20047;-42
2022/03/30 00:23:55;;;;;;;79.90;39.08;;;;;;;6.81;78.64;100216.13;5072367;28;20025;-43
2022/03/30 00:26:20;;;;;;;72.40;37.53;;;;;;;6.71;79.03;100201.16;5072803;28;20108;-42
2022/03/30 00:28:46;;;;;;;73.75;37.17;;;;;;;6.85;78.65;100212.09;5073759;28;20417;-42
2022/03/30 00:31:12;;;;;;;78.80;38.88;;;;;;;6.77;78.71;100195.13;5073581;28;20127;-42
2022/03/30 00:33:38;;;;;;;70.05;37.10;;;;;;;6.87;78.56;100200.25;5072574;28;20074;-42
2022/03/30 00:36:05;;;;;;;85.20;39.60;;;;;;;6.75;77.79;100197.13;5073606;28;20064;-42
2022/03/30 00:38:30;;;;;;;74.72;39.13;;;;;;;6.56;79.50;100197.59;5073934;28;20067;-42
2022/03/30 00:40:56;;;;;;;68.80;37.78;;;;;;;6.53;79.17;100192.59;5072644;28;20469;-42
2022/03/30 00:43:22;;;;;;;74.22;39.53;;;;;;;6.48;78.95;100179.78;5072035;28;20040;-42
2022/03/30 00:45:48;;;;;;;73.82;36.47;;;;;;;6.52;80.32;100189.09;5073739;28;20028;-43
2022/03/30 00:48:14;;;;;;;88.50;41.25;;;;;;;6.51;79.00;100184.75;5073581;28;20376;-41
2022/03/30 00:50:39;;;;;;;71.28;39.22;;;;;;;6.44;79.25;100170.44;5073573;28;20418;-42
2022/03/30 00:53:06;;;;;;;70.40;37.80;;;;;;;6.49;79.91;100175.28;5073448;28;20033;-42
2022/03/30 00:55:32;;;;;;;74.45;40.75;;;;;;;6.57;80.30;100170.75;5073227;28;20127;-42
2022/03/30 00:57:58;;;;;;;79.15;40.78;;;;;;;6.47;79.26;100178.09;5072181;28;20032;-43
2022/03/30 01:00:25;;;;;;;74.40;39.33;;;;;;;6.32;80.42;100172.69;5072239;28;20037;-42
2022/03/30 01:02:51;;;;;;;74.28;39.22;;;;;;;6.40;80.41;100163.81;5073457;28;20036;-44
2022/03/30 01:05:18;;;;;;;78.18;38.92;;;;;;;6.55;79.49;100161.22;5075872;28;20028;-42
2022/03/30 01:07:45;;;;;;;77.85;39.97;;;;;;;6.42;80.13;100160.97;5075831;28;20056;-44
2022/03/30 01:10:12;;;;;;;73.63;37.05;;;;;;;6.45;80.01;100163.28;5077036;28;20485;-43
2022/03/30 01:12:39;;;;;;;68.63;38.58;;;;;;;6.42;79.57;100159.13;5077176;28;20105;-42
2022/03/30 01:15:08;;;;;;;63.50;35.28;;;;;;;6.52;79.74;100157.09;5075464;28;20028;-42
2022/03/30 01:17:34;;;;;;;69.78;37.15;;;;;;;6.56;79.38;100157.56;5075828;28;20116;-42
2022/03/30 01:20:00;;;;;;;68.68;37.22;;;;;;;6.52;79.96;100154.41;5076541;28;20025;-45
2022/03/30 01:22:25;;;;;;;75.75;38.85;;;;;;;6.65;79.84;100151.19;5076324;28;20024;-41
2022/03/30 01:24:51;;;;;;;74.78;37.33;;;;;;;6.64;79.28;100149.50;5077391;28;20541;-42
2022/03/30 01:27:17;;;;;;;75.20;37.10;;;;;;;6.62;78.79;100156.03;5077374;28;20033;-45
2022/03/30 01:32:29;;;;;;;68.53;35.58;;;;;;;6.65;80.05;100156.50;5075382;28;20074;-43
2022/03/30 01:34:58;;;;;;;60.33;32.50;;;;;;;6.77;79.07;100157.75;5075460;28;20035;-43
2022/03/30 01:37:27;;;;;;;66.50;35.10;;;;;;;6.72;78.81;100140.63;5076724;28;20416;-43
2022/03/30 01:39:53;;;;;;;77.18;37.08;;;;;;;6.79;78.06;100155.75;5092286;28;20562;-43
2022/03/30 01:42:19;;;;;;;70.57;36.97;;;;;;;6.87;78.15;100159.38;5075510;28;20054;-43
2022/03/30 01:44:45;;;;;;;65.57;35.05;;;;;;;6.79;77.90;100145.06;5075039;28;20028;-43
2022/03/30 01:47:12;;;;;;;66.53;35.90;;;;;;;6.90;77.31;100151.00;5075513;28;20073;-50
2022/03/30 01:49:39;;;;;;;57.20;31.30;;;;;;;6.91;77.21;100147.31;5076447;28;20083;-48
2022/03/30 01:52:05;;;;;;;64.28;32.97;;;;;;;6.93;77.79;100146.16;5058100;28;20047;-43
2022/03/30 01:54:35;;;;;;;57.92;32.53;;;;;;;6.94;77.27;100147.81;5076194;28;20039;-43
2022/03/30 01:57:02;;;;;;;61.22;33.83;;;;;;;6.94;77.07;100138.97;5075870;28;20186;-43
2022/03/30 01:59:28;;;;;;;60.08;32.53;;;;;;;6.94;76.55;100142.47;5075789;28;20085;-43
2022/03/30 02:01:53;;;;;;;63.67;33.22;;;;;;;6.88;77.05;100134.34;5074669;28;20028;-43
2022/03/30 02:04:19;;;;;;;64.63;31.88;;;;;;;6.88;76.60;100142.34;5075092;28;20067;-44
2022/03/30 02:06:45;;;;;;;69.20;32.35;;;;;;;6.89;77.20;100139.53;5076343;28;20338;-42
2022/03/30 02:09:12;;;;;;;62.25;32.10;;;;;;;6.85;77.21;100132.84;5074762;28;20032;-45
2022/03/30 02:11:39;;;;;;;60.35;32.00;;;;;;;6.71;77.43;100133.63;5074274;28;20028;-43
2022/03/30 02:14:05;;;;;;;72.40;34.67;;;;;;;6.67;77.45;100130.47;5076106;28;20024;-43
2022/03/30 02:16:31;;;;;;;65.57;32.22;;;;;;;6.49;77.03;100119.25;5075151;28;20512;-44
2022/03/30 02:18:57;;;;;;;67.68;32.95;;;;;;;6.33;78.26;100118.34;5074979;28;20040;-46
2022/03/30 02:21:24;;;;;;;56.88;30.67;;;;;;;6.31;79.32;100122.16;5074512;28;20107;-44
2022/03/30 02:23:50;;;;;;;67.18;33.65;;;;;;;6.33;79.15;100120.16;5075788;28;20033;-43
2022/03/30 02:26:16;;;;;;;54.58;29.95;;;;;;;6.40;79.63;100115.78;5074762;28;20060;-43
2022/03/30 02:28:43;;;;;;;62.05;32.22;;;;;;;6.33;78.79;100075.69;5074620;28;20063;-43
2022/03/30 02:31:10;;;;;;;65.13;31.85;;;;;;;6.56;79.11;100110.38;5074399;28;20032;-43
2022/03/30 02:33:36;;;;;;;56.20;31.80;;;;;;;6.63;78.25;100105.16;5091294;28;20028;-43
2022/03/30 02:36:02;;;;;;;53.28;28.70;;;;;;;6.64;77.55;100098.81;5075437;28;20047;-43
2022/03/30 02:38:27;;;;;;;55.17;30.70;;;;;;;6.69;77.78;100107.13;5075279;28;20532;-43
2022/03/30 02:40:53;;;;;;;61.63;31.15;;;;;;;6.71;77.45;100098.94;5075780;28;20042;-42
2022/03/30 02:43:19;;;;;;;62.75;31.25;;;;;;;6.49;78.06;100096.06;5074498;28;20036;-43
2022/03/30 02:45:47;;;;;;;60.97;31.23;;;;;;;6.46;78.44;100101.75;5075641;28;20064;-43
2022/03/30 02:48:21;;;;;;;68.03;31.05;;;;;;;6.27;78.44;100083.53;5075270;28;20062;-44
2022/03/30 02:50:49;;;;;;;62.47;29.15;;;;;;;6.37;78.85;100086.78;5074528;28;20024;-43
2022/03/30 02:53:16;;;;;;;69.75;30.58;;;;;;;6.41;79.24;100082.78;5073994;28;20036;-43
2022/03/30 02:55:43;;;;;;;61.80;31.23;;;;;;;6.34;79.18;100081.84;5075067;28;20078;-44
2022/03/30 02:58:10;;;;;;;72.65;32.15;;;;;;;6.32;78.81;100083.84;5075077;28;20413;-47
2022/03/30 03:00:38;;;;;;;64.32;31.13;;;;;;;6.25;78.70;100072.22;5090883;28;20040;-43
2022/03/30 03:03:04;;;;;;;55.75;29.75;;;;;;;6.43;78.77;100085.28;5073781;28;20111;-45
2022/03/30 03:05:32;;;;;;;75.93;30.85;;;;;;;6.36;79.19;100079.81;5075111;28;20028;-43
2022/03/30 03:07:59;;;;;;;61.13;30.75;;;;;;;6.30;79.66;100067.19;5057138;28;20028;-43
2022/03/30 03:10:26;;;;;;;55.10;29.83;;;;;;;6.40;78.33;100070.44;5075206;28;20028;-44
2022/03/30 03:12:53;;;;;;;63.35;28.90;;;;;;;6.48;77.74;100073.09;5075170;28;20035;-43
2022/03/30 03:15:19;;;;;;;61.53;30.55;;;;;;;6.53;78.42;100069.88;5073628;28;20481;-43
2022/03/30 03:17:45;;;;;;;55.60;29.20;;;;;;;6.40;78.38;100049.94;5074545;28;20116;-42
2022/03/30 03:20:11;;;;;;;61.28;28.55;;;;;;;6.53;78.01;100064.53;5074834;28;20392;-44
2022/03/30 03:22:38;;;;;;;65.80;30.08;;;;;;;6.58;78.53;100072.84;5075147;28;20153;-46
2022/03/30 03:25:05;;;;;;;57.45;26.00;;;;;;;6.53;76.71;100060.03;5075455;28;20031;-46
2022/03/30 03:27:30;;;;;;;55.90;29.23;;;;;;;6.57;77.42;100072.03;5090720;28;20069;-43
2022/03/30 03:29:56;;;;;;;59.55;29.58;;;;;;;6.57;77.94;100060.50;5076035;28;20119;-45
2022/03/30 03:32:22;;;;;;;63.65;28.80;;;;;;;6.66;77.36;100058.63;5073733;28;20034;-48
2022/03/30 03:34:48;;;;;;;58.97;28.90;;;;;;;6.66;77.38;100058.63;5073935;28;20036;-43
2022/03/30 03:37:15;;;;;;;63.08;28.05;;;;;;;6.61;77.46;100053.78;5040208;28;20082;-43
2022/03/30 03:39:42;;;;;;;50.47;27.08;;;;;;;6.54;77.55;100056.34;5074462;28;20100;-44
2022/03/30 03:42:08;;;;;;;61.50;31.55;;;;;;;6.42;79.14;100062.28;5074399;28;20028;-42
2022/03/30 03:44:33;;;;;;;61.28;30.27;;;;;;;6.51;78.21;100056.72;5074706;28;20032;-44
2022/03/30 03:46:59;;;;;;;54.78;29.05;;;;;;;6.51;78.41;100053.22;5074283;28;20085;-44
2022/03/30 03:49:25;;;;;;;57.92;29.52;;;;;;;6.48;78.03;100040.22;5072943;28;20033;-44
2022/03/30 03:51:50;;;;;;;53.53;27.50;;;;;;;6.58;78.11;100048.84;5074208;28;20407;-43
2022/03/30 03:54:16;;;;;;;71.43;29.92;;;;;;;6.39;78.42;100034.97;5073079;28;20123;-43
2022/03/30 03:56:43;;;;;;;63.05;29.92;;;;;;;6.55;78.20;100046.50;5072647;28;20431;-44
2022/03/30 03:59:10;;;;;;;53.22;27.70;;;;;;;6.39;78.53;100032.28;5073845;28;20395;-43
2022/03/30 04:01:36;;;;;;;61.05;28.55;;;;;;;6.17;78.75;100033.94;5074466;28;20035;-44
2022/03/30 04:04:02;;;;;;;62.03;29.45;;;;;;;6.22;79.08;100052.03;5073308;28;20532;-44
2022/03/30 04:06:29;;;;;;;59.58;29.30;;;;;;;6.32;79.21;100041.19;5073121;28;20080;-43
2022/03/30 04:08:55;;;;;;;66.80;28.27;;;;;;;6.42;78.18;100039.09;5074729;28;20032;-43
2022/03/30 04:11:21;;;;;;;59.83;29.23;;;;;;;6.47;78.58;100043.91;5073254;28;20033;-43
2022/03/30 04:13:47;;;;;;;59.00;27.23;;;;;;;6.33;79.32;100042.81;5073307;28;20028;-44
2022/03/30 04:16:16;;;;;;;58.63;27.27;;;;;;;6.23;78.78;100034.22;5073945;28;20403;-46
2022/03/30 04:18:42;;;;;;;54.33;27.08;;;;;;;6.42;79.17;100047.09;5072943;28;20025;-43
2022/03/30 04:21:08;;;;;;;48.47;26.40;;;;;;;6.49;78.29;100047.22;5074278;28;20033;-43
2022/03/30 04:23:34;;;;;;;53.42;28.88;;;;;;;6.41;78.39;100045.47;5074115;28;20025;-44
2022/03/30 04:26:00;;;;;;;62.75;29.25;;;;;;;6.32;78.98;100046.50;5072471;28;20029;-44
2022/03/30 04:28:25;;;;;;;58.63;28.40;;;;;;;6.40;79.14;100041.94;5074108;28;20024;-44
2022/03/30 04:30:51;;;;;;;61.08;28.85;;;;;;;6.48;78.57;100046.41;5072816;28;20024;-43
2022/03/30 04:33:17;;;;;;;63.80;29.35;;;;;;;6.30;77.66;100036.00;5055858;28;20043;-43
2022/03/30 04:35:43;;;;;;;54.65;26.70;;;;;;;6.44;77.85;100044.25;5073364;28;20199;-44
2022/03/30 04:38:08;;;;;;;64.50;28.05;;;;;;;6.43;77.45;100051.44;5074184;28;20119;-44
2022/03/30 04:40:34;;;;;;;52.53;27.38;;;;;;;6.27;78.37;100023.03;5076370;28;20056;-43
2022/03/30 04:43:00;;;;;;;64.05;28.75;;;;;;;6.44;79.45;100044.25;5077487;28;20035;-43
2022/03/30 04:45:26;;;;;;;57.33;28.85;;;;;;;6.46;78.14;100040.41;5077324;28;20107;-43
2022/03/30 04:47:53;;;;;;;57.03;27.90;;;;;;;6.48;77.92;100038.41;5077669;28;20128;-43
2022/03/30 04:50:21;;;;;;;58.85;27.95;;;;;;;6.46;77.83;100026.25;5078575;28;20031;-44
2022/03/30 04:52:46;;;;;;;60.70;28.00;;;;;;;6.46;77.63;100036.91;5060918;28;20542;-44
2022/03/30 04:55:12;;;;;;;54.45;28.20;;;;;;;6.48;78.62;100043.75;5078491;28;20044;-43
2022/03/30 04:57:40;;;;;;;66.63;28.50;;;;;;;6.52;77.65;100042.38;5080695;28;20028;-43
2022/03/30 05:00:09;;;;;;;55.40;28.10;;;;;;;6.42;77.60;100035.59;5076224;28;20067;-44
2022/03/30 05:02:36;;;;;;;59.70;26.92;;;;;;;6.46;78.47;100036.91;5077073;28;20070;-44
2022/03/30 05:05:03;;;;;;;63.17;29.10;;;;;;;6.32;77.73;100039.34;5076348;28;20097;-44
2022/03/30 05:07:29;;;;;;;61.13;29.05;;;;;;;6.19;79.32;100033.75;5076999;28;20039;-43
2022/03/30 05:09:55;;;;;;;72.05;28.38;;;;;;;6.16;78.69;100026.09;5076060;28;20029;-44
2022/03/30 05:12:20;;;;;;;63.70;29.65;;;;;;;6.12;79.99;100032.78;5077312;28;20067;-44
2022/03/30 05:14:46;;;;;;;68.18;29.02;;;;;;;6.11;79.17;100017.78;5077004;28;20032;-46
2022/03/30 05:17:12;;;;;;;65.72;29.60;;;;;;;6.05;78.71;100023.81;5077263;28;20025;-43
2022/03/30 05:19:37;;;;;;;61.45;29.20;;;;;;;6.10;79.19;100032.97;5075692;28;20020;-43
2022/03/30 05:22:05;;;;;;;55.10;28.73;;;;;;;6.20;79.03;100024.72;5076800;28;20032;-44
2022/03/30 05:24:32;;;;;;;56.67;27.48;;;;;;;6.15;79.43;100024.44;5076506;28;20078;-44
2022/03/30 05:26:58;;;;;;;62.85;29.38;;;;;;;6.24;78.72;100026.06;5077312;28;20067;-44
2022/03/30 05:29:24;;;;;;;52.45;27.67;;;;;;;6.29;78.68;100028.19;5075644;28;20024;-44
2022/03/30 05:31:50;;;;;;;56.10;28.45;;;;;;;6.14;79.08;100023.59;5076951;28;20055;-45
2022/03/30 05:34:16;;;;;;;56.13;28.23;;;;;;;6.14;79.20;100020.13;5076513;28;20031;-43
2022/03/30 05:36:42;;;;;;;58.03;29.63;;;;;;;6.02;78.74;100014.34;5092430;28;20024;-44
2022/03/30 05:39:08;;;;;;;73.00;30.02;;;;;;;5.86;79.48;100014.41;5075507;28;20036;-45
2022/03/30 05:41:34;;;;;;;64.90;29.05;;;;;;;5.78;79.68;100024.09;5076504;28;20037;-44
2022/03/30 05:44:02;;;;;;;64.45;29.75;;;;;;;5.78;81.26;100009.94;5076711;28;20040;-43
2022/03/30 05:46:28;;;;;;;66.57;31.10;;;;;;;5.84;80.63;100014.56;5076581;28;20029;-44
2022/03/30 05:48:54;;;;;;;61.50;27.70;;;;;;;5.97;80.17;100027.38;5076292;28;20052;-44
2022/03/30 05:51:20;;;;;;;62.38;30.05;;;;;;;5.96;79.58;100020.38;5075231;28;20392;-44
2022/03/30 05:53:46;;;;;;;50.58;26.75;;;;;;;5.98;79.16;100016.53;5076315;28;20028;-44
2022/03/30 05:56:11;;;;;;;58.33;28.40;;;;;;;6.05;79.43;100019.31;5074755;28;20055;-43
2022/03/30 05:58:37;;;;;;;52.90;26.20;;;;;;;5.92;78.89;100025.19;5076738;28;20025;-43
2022/03/30 06:01:04;;;;;;;77.60;30.83;;;;;;;5.86;79.27;100015.22;5076614;28;20058;-44
2022/03/30 06:03:30;;;;;;;61.15;28.83;;;;;;;5.65;80.28;100013.16;5075378;28;20048;-44
2022/03/30 06:05:55;;;;;;;70.28;30.38;;;;;;;5.58;79.91;100012.19;5074862;28;20075;-43
2022/03/30 06:08:21;;;;;;;64.75;26.63;;;;;;;5.70;81.01;100024.16;5076472;28;20121;-43
2022/03/30 06:10:48;;;;;;;61.70;28.15;;;;;;;5.65;80.44;100009.69;5075192;28;20028;-44
2022/03/30 06:13:13;;;;;;;65.20;28.63;;;;;;;5.47;80.95;100005.41;5075051;28;20078;-43
2022/03/30 06:15:39;;;;;;;69.22;29.02;;;;;;;5.61;81.30;100004.69;5076400;28;20032;-43
2022/03/30 06:18:10;;;;;;;67.07;26.98;;;;;;;5.53;80.21;99983.41;5075978;28;20029;-44
2022/03/30 06:20:39;;;;;;;73.47;28.02;;;;;;;5.68;80.72;100006.66;5075642;28;20024;-44
2022/03/30 06:23:05;;;;;;;72.15;29.00;;;;;;;5.63;80.36;100021.31;5075950;28;20031;-43
2022/03/30 06:25:32;;;;;;;59.15;28.23;;;;;;;5.63;81.54;100021.31;5074524;28;20063;-43
2022/03/30 06:27:58;;;;;;;66.40;27.40;;;;;;;5.83;81.04;100026.22;5074220;28;20031;-43
2022/03/30 06:30:25;;;;;;;57.22;26.77;;;;;;;5.79;80.71;100008.94;5076009;28;20028;-43
2022/03/30 06:32:52;;;;;;;66.28;27.67;;;;;;;6.05;80.23;100024.66;5091818;28;20051;-42
2022/03/30 06:35:19;;;;;;;52.40;26.05;;;;;;;6.19;79.45;100020.41;5076586;28;20028;-44
2022/03/30 06:37:46;;;;;;;50.22;23.40;;;;;;;6.26;78.82;100024.03;5076317;28;20107;-43
2022/03/30 06:40:14;;;;;;;57.10;26.15;;;;;;;6.16;79.02;100002.91;5075468;28;20021;-44
2022/03/30 06:42:41;;;;;;;60.00;27.27;;;;;;;6.10;79.01;100011.63;5074385;28;20090;-44
2022/03/30 06:45:08;;;;;;;60.20;27.23;;;;;;;6.03;79.11;100020.50;5074420;28;20060;-43
2022/03/30 06:47:34;;;;;;;58.42;26.90;;;;;;;6.03;80.00;100012.50;5075563;28;20028;-43
2022/03/30 06:50:00;;;;;;;58.40;25.75;;;;;;;6.07;79.31;100021.81;5091058;28;20033;-44
2022/03/30 06:52:26;;;;;;;56.90;27.38;;;;;;;6.08;79.98;100032.31;5075695;28;20040;-43
2022/03/30 06:54:53;;;;;;;59.88;26.38;;;;;;;6.15;79.62;100025.28;5075016;28;20087;-44
2022/03/30 06:57:20;;;;;;;61.22;26.60;;;;;;;6.37;78.29;100030.78;5073929;28;20052;-44
2022/03/30 06:59:46;;;;;;;54.38;25.73;;;;;;;6.48;78.54;100024.22;5075484;28;20025;-44
2022/03/30 07:02:12;;;;;;;63.88;26.15;;;;;;;6.47;78.36;100030.56;5075220;28;20036;-46
2022/03/30 07:04:38;;;;;;;57.42;25.08;;;;;;;6.47;78.75;100014.56;5075445;28;20033;-43
2022/03/30 07:12:36;;;;;;;65.22;25.67;;;;;;;6.91;76.51;100024.53;5073868;28;20045;-43
2022/03/30 07:15:03;;;;;;;53.78;25.48;;;;;;;6.73;76.58;100027.53;5074407;28;20033;-43
2022/03/30 07:17:30;;;;;;;52.38;24.15;;;;;;;6.79;77.25;100024.97;5074902;28;20043;-42
2022/03/30 07:19:56;;;;;;;54.00;26.17;;;;;;;6.62;77.02;100018.13;5073471;28;20039;-44
2022/03/30 07:22:22;;;;;;;64.78;27.52;;;;;;;6.64;78.18;100013.44;5073673;28;20025;-43
2022/03/30 07:24:48;;;;;;;57.00;26.27;;;;;;;6.77;76.57;100015.50;5074498;28;20050;-43
2022/03/30 07:27:13;;;;;;;57.53;24.52;;;;;;;6.87;77.23;100005.41;5074609;28;20098;-44
2022/03/30 07:29:39;;;;;;;55.80;25.95;;;;;;;7.04;76.41;100010.56;5073134;28;20066;-43
2022/03/30 07:32:06;;;;;;;61.03;26.42;;;;;;;7.01;75.42;100014.44;5074667;28;20024;-46
2022/03/30 07:34:32;;;;;;;60.30;27.80;;;;;;;6.83;75.94;100019.28;5074470;28;20041;-43
2022/03/30 07:36:58;;;;;;;58.80;26.73;;;;;;;6.65;75.92;100009.75;5074447;28;20031;-43
2022/03/30 07:39:23;;;;;;;58.15;25.10;;;;;;;6.47;77.51;100010.06;5074579;28;20025;-41
2022/03/30 07:41:49;;;;;;;60.40;26.23;;;;;;;6.69;77.36;100018.25;5074197;28;20040;-44
2022/03/30 07:44:15;;;;;;;60.88;25.80;;;;;;;6.84;76.87;100013.75;5074366;28;20024;-43
2022/03/30 07:46:41;;;;;;;60.03;25.38;;;;;;;7.00;76.71;100010.09;5074525;28;20036;-43
2022/03/30 07:49:07;;;;;;;46.17;24.67;;;;;;;7.02;76.41;100008.09;5073844;28;20389;-43
2022/03/30 07:51:33;;;;;;;56.30;26.77;;;;;;;7.15;75.92;100010.97;5072875;28;20111;-43
2022/03/30 07:53:58;;;;;;;54.72;23.25;;;;;;;7.29;75.36;100003.16;5074100;28;20111;-41
2022/03/30 07:56:25;;;;;;;61.00;27.00;;;;;;;7.13;76.05;100001.47;5072262;28;20048;-43
2022/03/30 07:58:53;;;;;;;54.75;23.27;;;;;;;7.14;76.36;100001.28;5072753;28;20137;-41
2022/03/30 08:01:19;;;;;;;58.08;24.42;;;;;;;7.26;74.98;100000.84;5073471;28;20043;-43
2022/03/30 08:03:45;;;;;;;67.15;26.52;;;;;;;7.08;75.53;99988.69;5075208;28;20123;-44
2022/03/30 08:06:12;;;;;;;63.38;25.75;;;;;;;7.22;75.49;99999.56;5090204;28;20103;-43
2022/03/30 08:08:39;;;;;;;60.95;26.42;;;;;;;7.36;75.08;99993.38;5074903;28;20407;-42
2022/03/30 08:11:05;;;;;;;56.63;25.20;;;;;;;7.49;74.64;99984.72;5074638;28;20035;-42
2022/03/30 08:13:31;;;;;;;62.42;27.52;;;;;;;7.45;74.60;99986.13;5073336;28;20036;-41
2022/03/30 08:15:56;;;;;;;59.00;25.63;;;;;;;7.55;74.17;99987.47;5074150;28;20025;-42
2022/03/30 08:18:22;;;;;;;55.10;23.38;;;;;;;7.59;73.97;99998.63;5073917;28;20024;-43
2022/03/30 08:23:36;;;;;;;57.38;24.95;;;;;;;7.50;74.23;99979.22;5073027;28;20403;-42
2022/03/30 08:26:03;;;;;;;53.45;24.40;;;;;;;7.52;74.42;99973.66;5072840;28;20427;-43
2022/03/30 08:28:28;;;;;;;56.78;25.38;;;;;;;7.58;74.06;99983.63;5074265;28;20036;-45
2022/03/30 08:30:54;;;;;;;60.00;25.73;;;;;;;7.60;73.95;99988.78;5073890;28;20453;-43
2022/03/30 08:33:23;;;;;;;53.67;24.95;;;;;;;7.60;73.77;99983.44;5073905;28;20469;-43
2022/03/30 08:35:51;;;;;;;59.80;26.80;;;;;;;7.60;73.58;99984.25;5072701;28;20028;-43
2022/03/30 08:38:17;;;;;;;57.92;26.75;;;;;;;7.46;74.26;99971.72;5073775;28;20054;-43
2022/03/30 08:40:43;;;;;;;52.78;25.42;;;;;;;7.50;74.06;99962.31;5073862;28;20108;-42
2022/03/30 08:43:09;;;;;;;57.05;26.30;;;;;;;7.47;74.11;99981.41;5073276;28;20059;-43
2022/03/30 08:45:35;;;;;;;54.95;25.20;;;;;;;7.61;74.21;99977.88;5073561;28;20060;-43
2022/03/30 08:48:02;;;;;;;54.15;26.00;;;;;;;7.68;73.32;99973.44;5072306;28;20134;-43
2022/03/30 08:50:27;;;;;;;57.70;27.08;;;;;;;7.78;73.54;99983.03;5072434;28;20108;-42
2022/03/30 08:52:55;;;;;;;45.45;24.40;;;;;;;7.79;72.79;99985.50;5073611;28;20024;-42
2022/03/30 08:55:23;;;;;;;49.50;22.65;;;;;;;7.80;73.45;99984.50;5073570;28;20404;-42
2022/03/30 08:57:48;;;;;;;53.03;25.92;;;;;;;7.84;73.15;99990.31;5072302;28;20063;-45
2022/03/30 09:00:17;;;;;;;53.80;26.92;;;;;;;7.86;72.86;99998.97;5073589;28;20442;-42
2022/03/30 09:02:49;;;;;;;55.95;26.17;;;;;;;7.84;73.15;99988.47;5072310;28;20338;-42
2022/03/30 09:05:19;;;;;;;54.90;26.98;;;;;;;7.88;72.53;100000.44;5071899;28;20064;-41
2022/03/30 09:07:48;;;;;;;57.60;25.33;;;;;;;7.86;72.57;99990.94;5072103;28;20041;-41
2022/03/30 09:10:20;;;;;;;53.65;25.40;;;;;;;7.87;72.41;99992.59;5071748;28;20064;-42
2022/03/30 09:12:48;;;;;;;55.85;26.00;;;;;;;7.88;72.70;99995.09;5072942;28;20039;-41
2022/03/30 09:15:15;;;;;;;62.55;27.02;;;;;;;7.90;72.20;99992.22;5073621;28;20400;-42
2022/03/30 09:17:41;;;;;;;57.95;25.95;;;;;;;7.83;72.42;99981.44;5072992;28;20025;-41
2022/03/30 09:20:14;;;;;;;60.90;26.70;;;;;;;7.87;72.30;99998.75;5073166;28;20079;-41
2022/03/30 09:22:45;;;;;;;60.15;27.13;;;;;;;7.83;72.07;99996.66;5073230;28;20064;-42
2022/03/30 09:25:14;;;;;;;53.92;24.92;;;;;;;7.87;72.54;99993.41;5074271;28;20044;-41
2022/03/30 09:27:42;;;;;;;65.28;25.77;;;;;;;7.91;71.98;99992.03;5076975;28;20029;-41
2022/03/30 09:30:11;;;;;;;59.42;27.35;;;;;;;7.92;71.48;99991.00;5076353;28;20073;-41
2022/03/30 09:32:40;;;;;;;55.53;27.38;;;;;;;8.01;71.23;100002.44;5077114;28;20032;-41
2022/03/30 09:35:34;;;;;;;49.92;25.75;;;;;;;7.96;71.78;99996.81;5076375;28;20024;-42
2022/03/30 09:38:10;;;;;;;58.75;27.48;;;;;;;7.97;71.31;100002.97;5076602;28;20453;-43
2022/03/30 09:40:43;;;;;;;51.60;27.13;;;;;;;7.99;71.50;100004.47;5075053;28;20028;-42
2022/03/30 09:43:13;;;;;;;63.78;28.73;;;;;;;7.99;71.50;99990.28;5076481;28;20107;-42
2022/03/30 09:45:38;;;;;;;58.47;25.65;;;;;;;8.09;71.66;99998.81;5075519;28;20032;-43
2022/03/30 09:48:23;;;;;;;55.65;27.30;;;;;;;8.10;71.52;99992.47;5076900;28;20032;-43
2022/03/30 09:50:54;;;;;;;52.13;26.13;;;;;;;8.15;71.01;99995.38;5076203;28;20538;-42
2022/03/30 09:53:23;;;;;;;50.92;26.38;;;;;;;8.17;71.16;99992.50;5076642;28;20036;-44
2022/03/30 09:55:59;;;;;;;50.17;25.80;;;;;;;8.07;70.59;99987.47;5074862;28;20044;-43
2022/03/30 09:58:27;;;;;;;46.70;24.08;;;;;;;8.16;70.76;99990.88;5076463;28;20025;-46
2022/03/30 10:01:17;;;;;;;52.38;25.33;;;;;;;8.24;70.69;99990.75;5076345;28;20051;-45
2022/03/30 10:03:48;;;;;;;50.03;26.65;;;;;;;8.13;71.35;99982.22;5074944;28;20041;-44
2022/03/30 10:06:22;;;;;;;53.05;27.23;;;;;;;8.30;70.91;99984.63;5059155;28;20032;-47
2022/03/30 10:08:51;;;;;;;42.42;23.95;;;;;;;8.40;70.22;99976.28;5076060;28;20039;-43
2022/03/30 10:11:17;;;;;;;53.95;25.45;;;;;;;8.47;69.56;99974.53;5076442;28;20076;-45
2022/03/30 10:13:46;;;;;;;56.45;27.20;;;;;;;8.48;69.90;99982.34;5076493;28;20052;-44
2022/03/30 10:16:13;;;;;;;51.83;25.90;;;;;;;8.44;69.12;99983.75;5074656;28;20032;-42
2022/03/30 10:18:39;;;;;;;59.83;28.17;;;;;;;8.42;69.10;99983.13;5076419;28;20024;-42
2022/03/30 10:21:15;;;;;;;53.45;24.73;;;;;;;8.44;69.26;99974.91;5076523;28;20052;-42
2022/03/30 10:24:19;;;;;;;45.63;24.80;;;;;;;8.42;68.89;99985.81;5075032;28;20025;-42
2022/03/30 10:27:12;;;;;;;50.20;26.10;;;;;;;8.38;68.93;99967.63;5075082;28;20032;-43
2022/03/30 10:29:46;;;;;;;45.58;24.83;;;;;;;8.47;68.41;99980.72;5075245;28;20062;-44
2022/03/30 10:32:16;;;;;;;51.67;26.48;;;;;;;8.43;68.25;99974.09;5075930;28;20064;-41
2022/03/30 10:34:59;;;;;;;41.40;23.65;;;;;;;8.42;68.63;99983.13;5074864;28;20032;-42
2022/03/30 10:37:33;;;;;;;53.30;26.70;;;;;;;8.46;68.47;99975.56;5073912;28;20051;-46
2022/03/30 10:40:08;;;;;;;58.72;25.90;;;;;;;8.53;68.10;99982.63;5091972;28;20166;-41
2022/03/30 10:42:57;;;;;;;49.70;26.73;;;;;;;8.55;68.79;99977.06;5075627;28;20532;-45
2022/03/30 10:45:45;;;;;;;50.20;25.13;;;;;;;8.53;68.96;99977.25;5075011;28;20036;-44
2022/03/30 10:48:17;;;;;;;59.90;28.80;;;;;;;8.46;69.08;99965.66;5075104;28;20029;-44
2022/03/30 10:50:51;;;;;;;63.03;27.63;;;;;;;8.41;68.75;99961.88;5074786;28;20063;-42
2022/03/30 10:53:38;;;;;;;52.92;28.35;;;;;;;8.34;68.58;99959.16;5074397;28;20106;-44
2022/03/30 10:56:25;;;;;;;63.50;28.73;;;;;;;8.28;69.34;99966.09;5075135;28;20048;-45
2022/03/30 10:59:11;;;;;;;57.25;28.50;;;;;;;8.26;69.86;99970.78;5074259;28;20025;-43
2022/03/30 11:01:39;;;;;;;51.92;25.40;;;;;;;8.25;69.63;99962.97;5074079;28;20028;-44
2022/03/30 11:04:17;;;;;;;52.95;29.00;;;;;;;8.21;69.75;99957.19;5074021;28;20036;-43
2022/03/30 11:06:45;;;;;;;61.88;30.17;;;;;;;8.23;69.64;99954.31;5075168;28;20106;-46
2022/03/30 11:09:32;;;;;;;62.65;29.58;;;;;;;8.21;69.27;99949.16;5057169;28;20052;-46
2022/03/30 11:12:00;;;;;;;59.85;28.60;;;;;;;8.20;69.75;99954.69;5073581;28;20033;-44
2022/03/30 11:14:37;;;;;;;55.58;27.88;;;;;;;8.23;69.67;99955.16;5074815;28;20036;-44
2022/03/30 11:17:06;;;;;;;51.35;26.65;;;;;;;8.31;69.68;99940.81;5075093;28;20444;-45
2022/03/30 11:20:05;;;;;;;58.20;29.17;;;;;;;8.42;69.21;99945.66;5074595;28;20108;-43
2022/03/30 11:22:36;;;;;;;52.67;27.67;;;;;;;8.47;69.01;99945.94;5074293;28;20063;-43
2022/03/30 11:25:20;;;;;;;64.43;30.25;;;;;;;8.57;68.49;99934.88;5074885;28;20035;-45
2022/03/30 11:28:12;;;;;;;53.03;25.40;;;;;;;8.70;68.24;99934.97;5074779;28;20112;-43
2022/03/30 11:30:41;;;;;;;63.22;29.15;;;;;;;8.75;67.72;99921.03;5073762;28;20024;-46
2022/03/30 11:33:23;;;;;;;54.95;28.45;;;;;;;9.01;67.59;99939.13;5073166;28;20119;-43
2022/03/30 11:35:52;;;;;;;56.10;27.83;;;;;;;9.33;67.37;99933.31;5074784;28;20032;-42